sensor_id;sensor_type;location;lat;lon;timestamp;temperature;humidity
51029;DHT22;37054;52.054;8.600;2023-07-31T00:01:01;20.30;69.60
51029;DHT22;37054;52.054;8.600;2023-07-31T00:03:26;20.30;69.60
51029;DHT22;37054;52.054;8.600;2023-07-31T00:05:52;20.30;69.70
51029;DHT22;37054;52.054;8.600;2023-07-31T00:08:17;20.30;69.80
51029;DHT22;37054;52.054;8.600;2023-07-31T00:10:43;20.30;69.90
51029;DHT22;37054;52.054;8.600;2023-07-31T00:13:08;20.30;70.00
51029;DHT22;37054;52.054;8.600;2023-07-31T00:15:34;20.30;70.00
51029;DHT22;37054;52.054;8.600;2023-07-31T00:17:59;20.30;70.20
51029;DHT22;37054;52.054;8.600;2023-07-31T00:20:26;20.30;70.20
51029;DHT22;37054;52.054;8.600;2023-07-31T00:22:51;20.30;70.30
51029;DHT22;37054;52.054;8.600;2023-07-31T00:25:16;20.30;70.30
51029;DHT22;37054;52.054;8.600;2023-07-31T00:27:42;20.30;70.20
51029;DHT22;37054;52.054;8.600;2023-07-31T00:30:10;20.40;70.40
51029;DHT22;37054;52.054;8.600;2023-07-31T00:32:35;20.40;70.40
51029;DHT22;37054;52.054;8.600;2023-07-31T00:35:01;20.40;70.30
51029;DHT22;37054;52.054;8.600;2023-07-31T00:37:27;20.40;70.40
51029;DHT22;37054;52.054;8.600;2023-07-31T00:39:52;20.40;70.40
51029;DHT22;37054;52.054;8.600;2023-07-31T00:42:18;20.50;70.60
51029;DHT22;37054;52.054;8.600;2023-07-31T00:44:43;20.40;70.40
51029;DHT22;37054;52.054;8.600;2023-07-31T00:47:09;20.50;70.50
51029;DHT22;37054;52.054;8.600;2023-07-31T00:49:34;20.50;70.60
51029;DHT22;37054;52.054;8.600;2023-07-31T00:51:59;20.50;70.60
51029;DHT22;37054;52.054;8.600;2023-07-31T00:54:25;20.50;70.60
51029;DHT22;37054;52.054;8.600;2023-07-31T00:56:51;20.50;70.60
51029;DHT22;37054;52.054;8.600;2023-07-31T00:59:18;20.50;70.60
51029;DHT22;37054;52.054;8.600;2023-07-31T01:01:44;20.50;70.60
51029;DHT22;37054;52.054;8.600;2023-07-31T01:04:10;20.50;70.70
51029;DHT22;37054;52.054;8.600;2023-07-31T01:06:48;20.50;70.60
51029;DHT22;37054;52.054;8.600;2023-07-31T01:12:15;20.40;70.70
51029;DHT22;37054;52.054;8.600;2023-07-31T01:14:33;20.50;70.60
51029;DHT22;37054;52.054;8.600;2023-07-31T01:16:58;20.50;70.50
51029;DHT22;37054;52.054;8.600;2023-07-31T01:19:25;20.40;70.50
51029;DHT22;37054;52.054;8.600;2023-07-31T01:22:07;20.40;70.50
51029;DHT22;37054;52.054;8.600;2023-07-31T01:27:15;20.30;70.30
51029;DHT22;37054;52.054;8.600;2023-07-31T01:29:44;20.30;70.40
51029;DHT22;37054;52.054;8.600;2023-07-31T01:32:10;20.30;70.30
51029;DHT22;37054;52.054;8.600;2023-07-31T01:34:37;20.20;70.40
51029;DHT22;37054;52.054;8.600;2023-07-31T01:37:02;20.30;70.40
51029;DHT22;37054;52.054;8.600;2023-07-31T01:39:28;20.20;70.20
51029;DHT22;37054;52.054;8.600;2023-07-31T01:41:53;20.20;70.30
51029;DHT22;37054;52.054;8.600;2023-07-31T01:44:19;20.20;70.20
51029;DHT22;37054;52.054;8.600;2023-07-31T01:46:44;20.10;70.30
51029;DHT22;37054;52.054;8.600;2023-07-31T01:49:10;20.10;70.10
51029;DHT22;37054;52.054;8.600;2023-07-31T01:51:35;20.10;70.30
51029;DHT22;37054;52.054;8.600;2023-07-31T01:54:01;20.10;70.40
51029;DHT22;37054;52.054;8.600;2023-07-31T01:56:27;20.10;70.30
51029;DHT22;37054;52.054;8.600;2023-07-31T01:58:52;20.10;70.20
51029;DHT22;37054;52.054;8.600;2023-07-31T02:01:18;20.00;70.10
51029;DHT22;37054;52.054;8.600;2023-07-31T02:03:43;20.00;70.00
51029;DHT22;37054;52.054;8.600;2023-07-31T02:06:09;20.00;69.90
51029;DHT22;37054;52.054;8.600;2023-07-31T02:08:34;19.90;69.80
51029;DHT22;37054;52.054;8.600;2023-07-31T02:10:59;19.80;69.70
51029;DHT22;37054;52.054;8.600;2023-07-31T02:13:25;19.80;69.80
51029;DHT22;37054;52.054;8.600;2023-07-31T02:15:50;19.80;69.80
51029;DHT22;37054;52.054;8.600;2023-07-31T02:18:16;19.70;69.70
51029;DHT22;37054;52.054;8.600;2023-07-31T02:20:41;19.70;69.80
51029;DHT22;37054;52.054;8.600;2023-07-31T02:23:07;19.60;69.90
51029;DHT22;37054;52.054;8.600;2023-07-31T02:25:32;19.50;69.90
51029;DHT22;37054;52.054;8.600;2023-07-31T02:27:58;19.50;69.80
51029;DHT22;37054;52.054;8.600;2023-07-31T02:30:24;19.40;69.90
51029;DHT22;37054;52.054;8.600;2023-07-31T02:32:49;19.40;70.00
51029;DHT22;37054;52.054;8.600;2023-07-31T02:35:15;19.30;70.10
51029;DHT22;37054;52.054;8.600;2023-07-31T02:37:44;19.30;70.20
51029;DHT22;37054;52.054;8.600;2023-07-31T02:40:09;19.30;70.40
51029;DHT22;37054;52.054;8.600;2023-07-31T02:42:35;19.20;70.30
51029;DHT22;37054;52.054;8.600;2023-07-31T02:45:00;19.20;70.60
51029;DHT22;37054;52.054;8.600;2023-07-31T02:47:26;19.20;70.70
51029;DHT22;37054;52.054;8.600;2023-07-31T02:49:51;19.20;70.80
51029;DHT22;37054;52.054;8.600;2023-07-31T02:52:17;19.20;70.90
51029;DHT22;37054;52.054;8.600;2023-07-31T02:54:42;19.20;70.90
51029;DHT22;37054;52.054;8.600;2023-07-31T02:57:08;19.10;70.90
51029;DHT22;37054;52.054;8.600;2023-07-31T02:59:33;19.20;71.00
51029;DHT22;37054;52.054;8.600;2023-07-31T03:01:58;19.10;71.00
51029;DHT22;37054;52.054;8.600;2023-07-31T03:04:24;19.10;71.10
51029;DHT22;37054;52.054;8.600;2023-07-31T03:06:49;19.10;71.20
51029;DHT22;37054;52.054;8.600;2023-07-31T03:09:15;19.10;71.30
51029;DHT22;37054;52.054;8.600;2023-07-31T03:11:40;19.10;71.30
51029;DHT22;37054;52.054;8.600;2023-07-31T03:14:06;19.10;71.40
51029;DHT22;37054;52.054;8.600;2023-07-31T03:16:31;19.10;71.40
51029;DHT22;37054;52.054;8.600;2023-07-31T03:18:57;19.10;71.50
51029;DHT22;37054;52.054;8.600;2023-07-31T03:21:23;19.10;71.50
51029;DHT22;37054;52.054;8.600;2023-07-31T03:23:48;19.20;71.60
51029;DHT22;37054;52.054;8.600;2023-07-31T03:26:13;19.20;71.70
51029;DHT22;37054;52.054;8.600;2023-07-31T03:28:39;19.20;71.90
51029;DHT22;37054;52.054;8.600;2023-07-31T03:31:04;19.30;71.90
51029;DHT22;37054;52.054;8.600;2023-07-31T03:33:30;19.30;71.90
51029;DHT22;37054;52.054;8.600;2023-07-31T03:35:55;19.30;72.00
51029;DHT22;37054;52.054;8.600;2023-07-31T03:38:21;19.40;72.10
51029;DHT22;37054;52.054;8.600;2023-07-31T03:40:46;19.40;72.10
51029;DHT22;37054;52.054;8.600;2023-07-31T03:43:12;19.50;72.20
51029;DHT22;37054;52.054;8.600;2023-07-31T03:45:38;19.50;72.30
51029;DHT22;37054;52.054;8.600;2023-07-31T03:48:03;19.60;72.30
51029;DHT22;37054;52.054;8.600;2023-07-31T03:50:29;19.60;72.30
51029;DHT22;37054;52.054;8.600;2023-07-31T03:52:54;19.70;72.40
51029;DHT22;37054;52.054;8.600;2023-07-31T03:55:20;19.70;72.40
51029;DHT22;37054;52.054;8.600;2023-07-31T03:57:47;19.80;72.40
51029;DHT22;37054;52.054;8.600;2023-07-31T04:00:12;19.80;72.40
51029;DHT22;37054;52.054;8.600;2023-07-31T04:02:38;19.90;72.50
51029;DHT22;37054;52.054;8.600;2023-07-31T04:05:03;20.00;72.50
51029;DHT22;37054;52.054;8.600;2023-07-31T04:07:29;19.90;72.40
51029;DHT22;37054;52.054;8.600;2023-07-31T04:09:54;20.00;72.50
51029;DHT22;37054;52.054;8.600;2023-07-31T04:12:19;20.10;72.50
51029;DHT22;37054;52.054;8.600;2023-07-31T04:14:45;20.10;72.50
51029;DHT22;37054;52.054;8.600;2023-07-31T04:17:10;20.20;72.40
51029;DHT22;37054;52.054;8.600;2023-07-31T04:19:36;20.20;72.40
51029;DHT22;37054;52.054;8.600;2023-07-31T04:22:01;20.30;72.40
51029;DHT22;37054;52.054;8.600;2023-07-31T04:24:27;20.30;72.40
51029;DHT22;37054;52.054;8.600;2023-07-31T04:26:52;20.30;72.30
51029;DHT22;37054;52.054;8.600;2023-07-31T04:29:18;20.30;72.20
51029;DHT22;37054;52.054;8.600;2023-07-31T04:31:44;20.30;72.20
51029;DHT22;37054;52.054;8.600;2023-07-31T04:34:09;20.40;72.10
51029;DHT22;37054;52.054;8.600;2023-07-31T04:36:34;20.40;72.10
51029;DHT22;37054;52.054;8.600;2023-07-31T04:39:00;20.40;72.00
51029;DHT22;37054;52.054;8.600;2023-07-31T04:41:26;20.40;72.10
51029;DHT22;37054;52.054;8.600;2023-07-31T04:43:51;20.40;72.10
51029;DHT22;37054;52.054;8.600;2023-07-31T04:46:16;20.40;72.00
51029;DHT22;37054;52.054;8.600;2023-07-31T04:48:42;20.50;71.90
51029;DHT22;37054;52.054;8.600;2023-07-31T04:51:08;20.50;71.90
51029;DHT22;37054;52.054;8.600;2023-07-31T04:53:34;20.50;71.90
51029;DHT22;37054;52.054;8.600;2023-07-31T04:56:00;20.40;71.90
51029;DHT22;37054;52.054;8.600;2023-07-31T04:58:25;20.50;71.90
51029;DHT22;37054;52.054;8.600;2023-07-31T05:00:50;20.50;71.90
51029;DHT22;37054;52.054;8.600;2023-07-31T05:03:16;20.50;72.00
51029;DHT22;37054;52.054;8.600;2023-07-31T05:05:41;20.50;71.90
51029;DHT22;37054;52.054;8.600;2023-07-31T05:08:07;20.60;71.90
51029;DHT22;37054;52.054;8.600;2023-07-31T05:10:32;20.60;71.90
51029;DHT22;37054;52.054;8.600;2023-07-31T05:12:58;20.70;72.00
51029;DHT22;37054;52.054;8.600;2023-07-31T05:15:23;20.70;71.90
51029;DHT22;37054;52.054;8.600;2023-07-31T05:17:49;20.70;71.80
51029;DHT22;37054;52.054;8.600;2023-07-31T05:20:14;20.70;71.70
51029;DHT22;37054;52.054;8.600;2023-07-31T05:22:40;20.70;71.60
51029;DHT22;37054;52.054;8.600;2023-07-31T05:25:05;20.70;71.60
51029;DHT22;37054;52.054;8.600;2023-07-31T05:27:31;20.70;71.60
51029;DHT22;37054;52.054;8.600;2023-07-31T05:29:57;20.70;71.60
51029;DHT22;37054;52.054;8.600;2023-07-31T05:32:22;20.80;71.70
51029;DHT22;37054;52.054;8.600;2023-07-31T05:34:51;20.80;71.70
51029;DHT22;37054;52.054;8.600;2023-07-31T05:37:23;20.90;71.60
51029;DHT22;37054;52.054;8.600;2023-07-31T05:39:51;20.90;71.50
51029;DHT22;37054;52.054;8.600;2023-07-31T05:42:17;20.90;71.50
51029;DHT22;37054;52.054;8.600;2023-07-31T05:44:43;20.90;71.50
51029;DHT22;37054;52.054;8.600;2023-07-31T05:47:09;21.00;71.30
51029;DHT22;37054;52.054;8.600;2023-07-31T05:49:34;21.00;71.30
51029;DHT22;37054;52.054;8.600;2023-07-31T05:52:00;21.00;71.30
51029;DHT22;37054;52.054;8.600;2023-07-31T05:54:25;21.00;71.30
51029;DHT22;37054;52.054;8.600;2023-07-31T05:56:51;21.10;71.30
51029;DHT22;37054;52.054;8.600;2023-07-31T05:59:17;21.00;71.20
51029;DHT22;37054;52.054;8.600;2023-07-31T06:01:42;21.00;71.10
51029;DHT22;37054;52.054;8.600;2023-07-31T06:04:08;21.00;71.30
51029;DHT22;37054;52.054;8.600;2023-07-31T06:06:33;20.90;71.20
51029;DHT22;37054;52.054;8.600;2023-07-31T06:08:59;20.90;71.30
51029;DHT22;37054;52.054;8.600;2023-07-31T06:11:24;20.90;71.30
51029;DHT22;37054;52.054;8.600;2023-07-31T06:13:50;20.80;71.40
51029;DHT22;37054;52.054;8.600;2023-07-31T06:16:16;20.90;71.50
51029;DHT22;37054;52.054;8.600;2023-07-31T06:18:42;20.90;71.40
51029;DHT22;37054;52.054;8.600;2023-07-31T06:21:09;20.80;71.30
51029;DHT22;37054;52.054;8.600;2023-07-31T06:23:34;20.90;71.50
51029;DHT22;37054;52.054;8.600;2023-07-31T06:26:00;20.90;71.40
51029;DHT22;37054;52.054;8.600;2023-07-31T06:28:28;20.90;71.50
51029;DHT22;37054;52.054;8.600;2023-07-31T06:30:54;21.00;71.50
51029;DHT22;37054;52.054;8.600;2023-07-31T06:33:23;21.00;71.70
51029;DHT22;37054;52.054;8.600;2023-07-31T06:35:49;21.10;71.90
51029;DHT22;37054;52.054;8.600;2023-07-31T06:38:14;21.10;71.80
51029;DHT22;37054;52.054;8.600;2023-07-31T06:40:40;21.10;71.70
51029;DHT22;37054;52.054;8.600;2023-07-31T06:43:05;21.10;71.40
51029;DHT22;37054;52.054;8.600;2023-07-31T06:45:34;21.10;71.40
51029;DHT22;37054;52.054;8.600;2023-07-31T06:48:00;21.20;71.40
51029;DHT22;37054;52.054;8.600;2023-07-31T06:50:27;21.10;71.30
51029;DHT22;37054;52.054;8.600;2023-07-31T06:52:53;21.10;71.30
51029;DHT22;37054;52.054;8.600;2023-07-31T06:55:19;21.10;71.40
51029;DHT22;37054;52.054;8.600;2023-07-31T06:57:45;21.10;71.40
51029;DHT22;37054;52.054;8.600;2023-07-31T07:00:11;21.00;71.50
51029;DHT22;37054;52.054;8.600;2023-07-31T07:02:36;21.10;71.60
51029;DHT22;37054;52.054;8.600;2023-07-31T07:05:02;21.10;71.70
51029;DHT22;37054;52.054;8.600;2023-07-31T07:07:27;21.10;71.90
51029;DHT22;37054;52.054;8.600;2023-07-31T07:09:53;21.20;72.10
51029;DHT22;37054;52.054;8.600;2023-07-31T07:12:18;21.30;72.10
51029;DHT22;37054;52.054;8.600;2023-07-31T07:14:44;21.30;71.90
51029;DHT22;37054;52.054;8.600;2023-07-31T07:17:12;21.30;71.80
51029;DHT22;37054;52.054;8.600;2023-07-31T07:19:39;21.40;72.00
51029;DHT22;37054;52.054;8.600;2023-07-31T07:22:05;21.40;72.00
51029;DHT22;37054;52.054;8.600;2023-07-31T07:24:31;21.40;71.90
51029;DHT22;37054;52.054;8.600;2023-07-31T07:26:56;21.40;71.80
51029;DHT22;37054;52.054;8.600;2023-07-31T07:29:22;21.40;71.90
51029;DHT22;37054;52.054;8.600;2023-07-31T07:31:47;21.40;72.10
51029;DHT22;37054;52.054;8.600;2023-07-31T07:34:12;21.40;72.40
51029;DHT22;37054;52.054;8.600;2023-07-31T07:36:38;21.50;72.70
51029;DHT22;37054;52.054;8.600;2023-07-31T07:39:03;21.70;72.90
51029;DHT22;37054;52.054;8.600;2023-07-31T07:41:29;21.80;73.00
51029;DHT22;37054;52.054;8.600;2023-07-31T07:43:54;21.80;72.70
51029;DHT22;37054;52.054;8.600;2023-07-31T07:46:20;21.90;72.50
51029;DHT22;37054;52.054;8.600;2023-07-31T07:48:45;21.90;72.30
51029;DHT22;37054;52.054;8.600;2023-07-31T07:51:11;21.90;72.30
51029;DHT22;37054;52.054;8.600;2023-07-31T07:53:36;21.80;71.70
51029;DHT22;37054;52.054;8.600;2023-07-31T07:56:02;21.70;71.60
51029;DHT22;37054;52.054;8.600;2023-07-31T07:58:27;21.70;71.40
51029;DHT22;37054;52.054;8.600;2023-07-31T08:00:53;21.50;71.70
51029;DHT22;37054;52.054;8.600;2023-07-31T08:03:18;21.50;71.70
51029;DHT22;37054;52.054;8.600;2023-07-31T08:05:44;21.50;71.50
51029;DHT22;37054;52.054;8.600;2023-07-31T08:08:14;21.40;71.70
51029;DHT22;37054;52.054;8.600;2023-07-31T08:10:39;21.30;71.90
51029;DHT22;37054;52.054;8.600;2023-07-31T08:13:05;21.30;72.10
51029;DHT22;37054;52.054;8.600;2023-07-31T08:15:30;21.30;72.40
51029;DHT22;37054;52.054;8.600;2023-07-31T08:17:56;21.40;72.40
51029;DHT22;37054;52.054;8.600;2023-07-31T08:20:21;21.30;72.50
51029;DHT22;37054;52.054;8.600;2023-07-31T08:22:47;21.40;72.40
51029;DHT22;37054;52.054;8.600;2023-07-31T08:25:12;21.40;72.60
51029;DHT22;37054;52.054;8.600;2023-07-31T08:27:37;21.40;72.40
51029;DHT22;37054;52.054;8.600;2023-07-31T08:30:03;21.40;72.80
51029;DHT22;37054;52.054;8.600;2023-07-31T08:32:28;21.50;72.80
51029;DHT22;37054;52.054;8.600;2023-07-31T08:34:54;21.60;72.90
51029;DHT22;37054;52.054;8.600;2023-07-31T08:37:19;21.80;73.30
51029;DHT22;37054;52.054;8.600;2023-07-31T08:39:45;22.00;73.00
51029;DHT22;37054;52.054;8.600;2023-07-31T08:42:10;22.10;72.80
51029;DHT22;37054;52.054;8.600;2023-07-31T08:44:36;22.20;72.80
51029;DHT22;37054;52.054;8.600;2023-07-31T08:47:01;22.30;72.50
51029;DHT22;37054;52.054;8.600;2023-07-31T08:49:27;22.30;72.60
51029;DHT22;37054;52.054;8.600;2023-07-31T08:51:52;22.40;73.10
51029;DHT22;37054;52.054;8.600;2023-07-31T08:54:19;22.60;73.10
51029;DHT22;37054;52.054;8.600;2023-07-31T08:56:45;22.80;73.10
51029;DHT22;37054;52.054;8.600;2023-07-31T08:59:10;22.90;72.50
51029;DHT22;37054;52.054;8.600;2023-07-31T09:01:38;23.00;72.40
51029;DHT22;37054;52.054;8.600;2023-07-31T09:04:06;23.10;72.10
51029;DHT22;37054;52.054;8.600;2023-07-31T09:06:33;23.10;71.90
51029;DHT22;37054;52.054;8.600;2023-07-31T09:08:59;23.20;71.70
51029;DHT22;37054;52.054;8.600;2023-07-31T09:11:25;23.10;71.30
51029;DHT22;37054;52.054;8.600;2023-07-31T09:13:50;23.10;71.20
51029;DHT22;37054;52.054;8.600;2023-07-31T09:16:16;22.90;71.10
51029;DHT22;37054;52.054;8.600;2023-07-31T09:18:52;22.80;70.60
51029;DHT22;37054;52.054;8.600;2023-07-31T09:21:18;22.70;71.10
51029;DHT22;37054;52.054;8.600;2023-07-31T09:23:44;22.50;71.60
51029;DHT22;37054;52.054;8.600;2023-07-31T09:26:10;22.50;71.70
51029;DHT22;37054;52.054;8.600;2023-07-31T09:28:36;22.50;71.80
51029;DHT22;37054;52.054;8.600;2023-07-31T09:31:01;22.60;72.30
51029;DHT22;37054;52.054;8.600;2023-07-31T09:33:27;22.60;72.10
51029;DHT22;37054;52.054;8.600;2023-07-31T09:35:52;22.60;72.00
51029;DHT22;37054;52.054;8.600;2023-07-31T09:38:18;22.60;71.70
51029;DHT22;37054;52.054;8.600;2023-07-31T09:40:47;22.50;71.80
51029;DHT22;37054;52.054;8.600;2023-07-31T09:43:13;22.60;72.10
51029;DHT22;37054;52.054;8.600;2023-07-31T09:45:42;22.70;73.00
51029;DHT22;37054;52.054;8.600;2023-07-31T09:48:08;23.00;73.10
51029;DHT22;37054;52.054;8.600;2023-07-31T09:50:36;23.10;72.60
51029;DHT22;37054;52.054;8.600;2023-07-31T09:53:02;23.20;73.10
51029;DHT22;37054;52.054;8.600;2023-07-31T09:55:27;23.40;73.00
51029;DHT22;37054;52.054;8.600;2023-07-31T09:57:53;23.60;72.50
51029;DHT22;37054;52.054;8.600;2023-07-31T10:00:20;23.70;71.90
51029;DHT22;37054;52.054;8.600;2023-07-31T10:02:47;23.70;71.70
51029;DHT22;37054;52.054;8.600;2023-07-31T10:05:14;23.70;71.60
51029;DHT22;37054;52.054;8.600;2023-07-31T10:07:42;23.70;71.10
51029;DHT22;37054;52.054;8.600;2023-07-31T10:10:08;23.60;71.10
51029;DHT22;37054;52.054;8.600;2023-07-31T10:12:34;23.50;71.20
51029;DHT22;37054;52.054;8.600;2023-07-31T10:15:01;23.50;70.90
51029;DHT22;37054;52.054;8.600;2023-07-31T10:17:26;23.40;71.30
51029;DHT22;37054;52.054;8.600;2023-07-31T10:19:52;23.30;71.60
51029;DHT22;37054;52.054;8.600;2023-07-31T10:22:19;23.30;72.00
51029;DHT22;37054;52.054;8.600;2023-07-31T10:24:45;23.30;72.40
51029;DHT22;37054;52.054;8.600;2023-07-31T10:27:11;23.30;72.60
51029;DHT22;37054;52.054;8.600;2023-07-31T10:29:37;23.30;71.30
51029;DHT22;37054;52.054;8.600;2023-07-31T10:32:06;23.10;71.80
51029;DHT22;37054;52.054;8.600;2023-07-31T10:34:35;23.10;72.20
51029;DHT22;37054;52.054;8.600;2023-07-31T10:37:19;23.30;73.10
51029;DHT22;37054;52.054;8.600;2023-07-31T10:39:53;23.30;72.70
51029;DHT22;37054;52.054;8.600;2023-07-31T10:42:20;23.40;73.10
51029;DHT22;37054;52.054;8.600;2023-07-31T10:44:52;23.50;72.90
51029;DHT22;37054;52.054;8.600;2023-07-31T10:47:20;23.50;73.00
51029;DHT22;37054;52.054;8.600;2023-07-31T10:49:46;23.50;71.90
51029;DHT22;37054;52.054;8.600;2023-07-31T10:52:12;23.40;71.60
51029;DHT22;37054;52.054;8.600;2023-07-31T10:54:38;23.30;71.80
51029;DHT22;37054;52.054;8.600;2023-07-31T10:57:10;23.20;72.10
51029;DHT22;37054;52.054;8.600;2023-07-31T10:59:43;23.20;72.20
51029;DHT22;37054;52.054;8.600;2023-07-31T11:02:09;23.20;72.20
51029;DHT22;37054;52.054;8.600;2023-07-31T11:05:05;23.20;71.90
51029;DHT22;37054;52.054;8.600;2023-07-31T11:07:45;23.00;71.80
51029;DHT22;37054;52.054;8.600;2023-07-31T11:10:11;23.00;71.80
51029;DHT22;37054;52.054;8.600;2023-07-31T11:12:36;22.90;72.30
51029;DHT22;37054;52.054;8.600;2023-07-31T11:15:02;23.00;72.50
51029;DHT22;37054;52.054;8.600;2023-07-31T11:17:28;23.10;72.60
51029;DHT22;37054;52.054;8.600;2023-07-31T11:19:54;23.10;72.00
51029;DHT22;37054;52.054;8.600;2023-07-31T11:22:19;23.10;72.80
51029;DHT22;37054;52.054;8.600;2023-07-31T11:24:45;23.10;72.90
51029;DHT22;37054;52.054;8.600;2023-07-31T11:27:12;23.10;72.30
51029;DHT22;37054;52.054;8.600;2023-07-31T11:29:37;23.10;72.20
51029;DHT22;37054;52.054;8.600;2023-07-31T11:32:02;23.10;72.70
51029;DHT22;37054;52.054;8.600;2023-07-31T11:34:28;23.10;72.00
51029;DHT22;37054;52.054;8.600;2023-07-31T11:36:54;23.00;71.80
51029;DHT22;37054;52.054;8.600;2023-07-31T11:39:24;23.00;72.10
51029;DHT22;37054;52.054;8.600;2023-07-31T11:41:49;22.90;72.20
51029;DHT22;37054;52.054;8.600;2023-07-31T11:44:15;22.90;72.70
51029;DHT22;37054;52.054;8.600;2023-07-31T11:46:40;23.00;72.70
51029;DHT22;37054;52.054;8.600;2023-07-31T11:49:06;23.10;73.10
51029;DHT22;37054;52.054;8.600;2023-07-31T11:51:31;23.20;73.20
51029;DHT22;37054;52.054;8.600;2023-07-31T11:53:57;23.30;72.50
51029;DHT22;37054;52.054;8.600;2023-07-31T11:56:24;23.30;72.20
51029;DHT22;37054;52.054;8.600;2023-07-31T11:58:53;23.30;72.00
51029;DHT22;37054;52.054;8.600;2023-07-31T12:01:20;23.30;72.30
51029;DHT22;37054;52.054;8.600;2023-07-31T12:03:46;23.30;72.20
51029;DHT22;37054;52.054;8.600;2023-07-31T12:06:12;23.40;72.10
51029;DHT22;37054;52.054;8.600;2023-07-31T12:08:37;23.40;72.40
51029;DHT22;37054;52.054;8.600;2023-07-31T12:11:07;23.50;72.60
51029;DHT22;37054;52.054;8.600;2023-07-31T12:13:34;23.50;72.40
51029;DHT22;37054;52.054;8.600;2023-07-31T12:16:01;23.60;72.50
51029;DHT22;37054;52.054;8.600;2023-07-31T12:18:29;23.70;72.70
51029;DHT22;37054;52.054;8.600;2023-07-31T12:20:55;23.80;72.70
51029;DHT22;37054;52.054;8.600;2023-07-31T12:23:22;23.80;72.20
51029;DHT22;37054;52.054;8.600;2023-07-31T12:26:00;23.80;71.60
51029;DHT22;37054;52.054;8.600;2023-07-31T12:28:26;23.70;72.00
51029;DHT22;37054;52.054;8.600;2023-07-31T12:30:51;23.70;71.80
51029;DHT22;37054;52.054;8.600;2023-07-31T12:33:16;23.70;72.20
51029;DHT22;37054;52.054;8.600;2023-07-31T12:35:45;23.80;72.40
51029;DHT22;37054;52.054;8.600;2023-07-31T12:38:11;23.70;72.40
51029;DHT22;37054;52.054;8.600;2023-07-31T12:40:40;23.70;71.60
51029;DHT22;37054;52.054;8.600;2023-07-31T12:43:06;23.70;72.10
51029;DHT22;37054;52.054;8.600;2023-07-31T12:45:32;23.70;72.00
51029;DHT22;37054;52.054;8.600;2023-07-31T12:47:58;23.50;71.50
51029;DHT22;37054;52.054;8.600;2023-07-31T12:50:24;23.50;72.10
51029;DHT22;37054;52.054;8.600;2023-07-31T12:52:51;23.40;72.00
51029;DHT22;37054;52.054;8.600;2023-07-31T12:55:16;23.30;71.60
51029;DHT22;37054;52.054;8.600;2023-07-31T12:57:43;23.30;71.60
51029;DHT22;37054;52.054;8.600;2023-07-31T13:00:09;23.20;72.10
51029;DHT22;37054;52.054;8.600;2023-07-31T13:02:34;23.20;72.30
51029;DHT22;37054;52.054;8.600;2023-07-31T13:05:00;23.10;71.70
51029;DHT22;37054;52.054;8.600;2023-07-31T13:07:26;23.00;71.40
51029;DHT22;37054;52.054;8.600;2023-07-31T13:09:51;22.90;71.10
51029;DHT22;37054;52.054;8.600;2023-07-31T13:12:17;22.80;72.10
51029;DHT22;37054;52.054;8.600;2023-07-31T13:14:43;22.80;72.40
51029;DHT22;37054;52.054;8.600;2023-07-31T13:17:08;22.90;73.20
51029;DHT22;37054;52.054;8.600;2023-07-31T13:19:34;23.10;73.70
51029;DHT22;37054;52.054;8.600;2023-07-31T13:21:59;23.50;74.60
51029;DHT22;37054;52.054;8.600;2023-07-31T13:24:25;23.80;74.00
51029;DHT22;37054;52.054;8.600;2023-07-31T13:26:50;24.20;73.60
51029;DHT22;37054;52.054;8.600;2023-07-31T13:29:16;24.40;73.40
51029;DHT22;37054;52.054;8.600;2023-07-31T13:31:41;24.70;73.00
51029;DHT22;37054;52.054;8.600;2023-07-31T13:34:07;25.00;72.60
51029;DHT22;37054;52.054;8.600;2023-07-31T13:36:32;25.30;72.50
51029;DHT22;37054;52.054;8.600;2023-07-31T13:38:59;25.50;72.10
51029;DHT22;37054;52.054;8.600;2023-07-31T13:41:25;25.70;71.20
51029;DHT22;37054;52.054;8.600;2023-07-31T13:43:50;25.80;70.90
51029;DHT22;37054;52.054;8.600;2023-07-31T13:46:15;25.70;70.80
51029;DHT22;37054;52.054;8.600;2023-07-31T13:48:41;25.70;71.00
51029;DHT22;37054;52.054;8.600;2023-07-31T13:51:06;25.80;71.00
51029;DHT22;37054;52.054;8.600;2023-07-31T13:53:32;25.80;70.60
51029;DHT22;37054;52.054;8.600;2023-07-31T13:55:57;25.80;70.30
51029;DHT22;37054;52.054;8.600;2023-07-31T13:58:23;25.70;70.20
51029;DHT22;37054;52.054;8.600;2023-07-31T14:00:48;25.60;69.90
51029;DHT22;37054;52.054;8.600;2023-07-31T14:03:14;25.50;69.90
51029;DHT22;37054;52.054;8.600;2023-07-31T14:05:39;25.50;70.30
51029;DHT22;37054;52.054;8.600;2023-07-31T14:08:04;25.30;70.20
51029;DHT22;37054;52.054;8.600;2023-07-31T14:10:30;25.30;70.70
51029;DHT22;37054;52.054;8.600;2023-07-31T14:12:55;25.30;70.80
51029;DHT22;37054;52.054;8.600;2023-07-31T14:15:21;25.30;70.60
51029;DHT22;37054;52.054;8.600;2023-07-31T14:17:46;25.30;70.70
51029;DHT22;37054;52.054;8.600;2023-07-31T14:20:12;25.30;70.60
51029;DHT22;37054;52.054;8.600;2023-07-31T14:22:37;25.30;70.10
51029;DHT22;37054;52.054;8.600;2023-07-31T14:25:03;25.20;70.40
51029;DHT22;37054;52.054;8.600;2023-07-31T14:27:29;25.10;70.20
51029;DHT22;37054;52.054;8.600;2023-07-31T14:29:54;24.90;70.00
51029;DHT22;37054;52.054;8.600;2023-07-31T14:32:20;24.80;70.00
51029;DHT22;37054;52.054;8.600;2023-07-31T14:34:46;24.70;70.00
51029;DHT22;37054;52.054;8.600;2023-07-31T14:37:11;24.70;70.30
51029;DHT22;37054;52.054;8.600;2023-07-31T14:39:37;24.70;70.50
51029;DHT22;37054;52.054;8.600;2023-07-31T14:42:02;24.70;70.70
51029;DHT22;37054;52.054;8.600;2023-07-31T14:44:28;24.70;70.50
51029;DHT22;37054;52.054;8.600;2023-07-31T14:46:53;24.70;70.50
51029;DHT22;37054;52.054;8.600;2023-07-31T14:49:19;24.60;70.20
51029;DHT22;37054;52.054;8.600;2023-07-31T14:51:44;24.60;70.50
51029;DHT22;37054;52.054;8.600;2023-07-31T14:54:10;24.60;70.80
51029;DHT22;37054;52.054;8.600;2023-07-31T14:56:35;24.50;70.90
51029;DHT22;37054;52.054;8.600;2023-07-31T14:59:02;24.60;71.00
51029;DHT22;37054;52.054;8.600;2023-07-31T15:01:27;24.60;70.60
51029;DHT22;37054;52.054;8.600;2023-07-31T15:03:53;24.50;70.90
51029;DHT22;37054;52.054;8.600;2023-07-31T15:06:18;24.60;71.10
51029;DHT22;37054;52.054;8.600;2023-07-31T15:08:44;24.60;71.10
51029;DHT22;37054;52.054;8.600;2023-07-31T15:11:09;24.70;70.80
51029;DHT22;37054;52.054;8.600;2023-07-31T15:13:35;24.80;70.80
51029;DHT22;37054;52.054;8.600;2023-07-31T15:16:00;24.90;71.00
51029;DHT22;37054;52.054;8.600;2023-07-31T15:18:26;25.10;71.20
51029;DHT22;37054;52.054;8.600;2023-07-31T15:20:51;25.10;70.20
51029;DHT22;37054;52.054;8.600;2023-07-31T15:23:17;25.10;69.90
51029;DHT22;37054;52.054;8.600;2023-07-31T15:25:43;25.10;69.10
51029;DHT22;37054;52.054;8.600;2023-07-31T15:28:09;25.10;69.60